Historique des stations

Station météo de Les Bordes

Altitude de la station : 154m m







Données météorologiques pour le 04/12/2022
Date
Heure
Températures Humidité Point de rosée Vitesse
du vent
Direction Rafales Windchill Pression Pluviométrie
Cumul
Date
Heure
Températures Humidité Point de rosée Vitesse
du vent
Direction Rafales Windchill Pression Pluviométrie
Cumul
04/12/2022 16:304.2 °C94 %3.3 °C-O2 km/h4.21012 hPa1.2 mm
04/12/2022 16:104.1 °C94 %3.2 °C-ONO2 km/h4.11012 hPa1.2 mm
04/12/2022 16:004.2 °C93 %3.1 °C-NO3 km/h4.21012 hPa1.0 mm
04/12/2022 15:404.2 °C93 %3.2 °C-NNO2 km/h4.21012 hPa0.8 mm
04/12/2022 15:304.3 °C93 %3.2 °C-ONO2 km/h4.31012 hPa0.6 mm
04/12/2022 15:104.3 °C92 %3.1 °C-O2 km/h4.31012 hPa0.2 mm
04/12/2022 15:004.3 °C91 %2.9 °C-OSO2 km/h4.31012 hPa0.2 mm
04/12/2022 14:404.3 °C91 %2.9 °C---4.31012 hPa0.0 mm
04/12/2022 14:304.3 °C91 %2.9 °C-SE2 km/h4.31012 hPa0.0 mm
04/12/2022 14:104.2 °C91 %2.9 °C-SE2 km/h4.21012 hPa0.0 mm
04/12/2022 14:004.3 °C92 %3.1 °C-NNE3 km/h4.31011 hPa0.0 mm
04/12/2022 13:404.2 °C92 %3.0 °C-6 km/h4.21011 hPa0.0 mm
04/12/2022 13:304.1 °C92 %2.9 °C-6 km/h4.11011 hPa0.0 mm
04/12/2022 13:104.1 °C92 %2.9 °C-6 km/h4.11011 hPa0.0 mm
04/12/2022 13:003.9 °C92 %2.8 °C-ENE3 km/h3.91012 hPa0.0 mm
04/12/2022 12:403.8 °C92 %2.7 °C-3 km/h3.81012 hPa0.0 mm
04/12/2022 12:303.8 °C92 %2.6 °C-SE2 km/h3.81012 hPa0.0 mm
04/12/2022 12:103.7 °C92 %2.5 °C-SSO2 km/h3.71012 hPa0.0 mm
04/12/2022 12:003.7 °C92 %2.5 °C-SSE3 km/h3.71012 hPa0.0 mm
04/12/2022 11:403.8 °C92 %2.6 °C-SSE2 km/h3.81012 hPa0.0 mm
04/12/2022 11:103.7 °C92 %2.5 °C-ESE2 km/h3.71012 hPa0.0 mm
04/12/2022 11:003.6 °C92 %2.4 °C-ESE8 km/h3.61012 hPa0.0 mm
04/12/2022 10:403.6 °C93 %2.5 °C-E3 km/h3.61012 hPa0.0 mm
04/12/2022 10:303.5 °C92 %2.3 °C-NE5 km/h3.51011 hPa0.0 mm
04/12/2022 10:103.5 °C92 %2.3 °C-E5 km/h3.51011 hPa0.0 mm
04/12/2022 10:003.4 °C92 %2.3 °C-ENE6 km/h3.41011 hPa0.0 mm
04/12/2022 09:403.4 °C92 %2.2 °C-E3 km/h3.41011 hPa0.0 mm
04/12/2022 09:303.4 °C92 %2.3 °C-NE3 km/h3.41011 hPa0.0 mm
04/12/2022 09:103.4 °C92 %2.3 °C-E6 km/h3.41011 hPa0.0 mm
04/12/2022 09:003.4 °C92 %2.2 °C-E5 km/h3.41011 hPa0.0 mm
04/12/2022 08:403.4 °C92 %2.3 °C-ENE2 km/h3.41011 hPa0.0 mm
04/12/2022 08:303.4 °C92 %2.2 °C-NE3 km/h3.41011 hPa0.0 mm
04/12/2022 08:103.4 °C92 %2.2 °C-E3 km/h3.41011 hPa0.0 mm
04/12/2022 08:003.4 °C92 %2.2 °C-E5 km/h3.41011 hPa0.0 mm
04/12/2022 07:403.4 °C92 %2.2 °C1 km/hE5 km/h3.41011 hPa0.0 mm
04/12/2022 07:303.4 °C92 %2.2 °C1 km/hE5 km/h3.41011 hPa0.0 mm
04/12/2022 07:103.4 °C92 %2.2 °C2 km/hE6 km/h3.41011 hPa0.0 mm
04/12/2022 07:003.4 °C92 %2.2 °C2 km/hE6 km/h3.41011 hPa0.0 mm
04/12/2022 06:403.3 °C92 %2.2 °C2 km/hE6 km/h3.31011 hPa0.0 mm
04/12/2022 06:303.3 °C92 %2.2 °C2 km/hENE10 km/h3.31011 hPa0.0 mm
04/12/2022 06:103.3 °C92 %2.1 °C2 km/hE10 km/h3.31010 hPa0.0 mm
04/12/2022 06:003.3 °C92 %2.1 °C2 km/hE8 km/h3.31011 hPa0.0 mm
04/12/2022 05:403.3 °C92 %2.2 °C2 km/hE8 km/h3.31011 hPa0.0 mm
04/12/2022 05:303.3 °C91 %2.0 °C2 km/hE10 km/h3.31011 hPa0.0 mm
04/12/2022 05:103.3 °C91 %2.0 °C2 km/hENE8 km/h3.31011 hPa0.0 mm
04/12/2022 05:003.3 °C91 %2.0 °C2 km/hE6 km/h3.31011 hPa0.0 mm
04/12/2022 04:403.4 °C91 %2.1 °C2 km/hE8 km/h3.41011 hPa0.0 mm
04/12/2022 04:303.3 °C91 %2.0 °C1 km/hENE6 km/h3.31011 hPa0.0 mm
04/12/2022 04:103.3 °C91 %2.0 °C1 km/hE5 km/h3.31011 hPa0.0 mm
04/12/2022 04:003.3 °C91 %2.0 °C1 km/hNE6 km/h3.31010 hPa0.0 mm
04/12/2022 03:403.3 °C91 %2.0 °C1 km/hENE6 km/h3.31010 hPa0.0 mm
04/12/2022 03:303.2 °C91 %1.9 °C2 km/hENE6 km/h3.21011 hPa0.0 mm
04/12/2022 03:103.2 °C91 %1.9 °C2 km/hENE8 km/h3.21011 hPa0.0 mm
04/12/2022 03:003.2 °C91 %1.9 °C2 km/hNNE10 km/h3.21011 hPa0.0 mm
04/12/2022 02:403.2 °C91 %1.9 °C2 km/hNE8 km/h3.21011 hPa0.0 mm
04/12/2022 02:303.3 °C91 %2.0 °C2 km/hENE10 km/h3.31011 hPa0.0 mm
04/12/2022 02:103.3 °C91 %2.0 °C2 km/hNE10 km/h3.31011 hPa0.0 mm
04/12/2022 02:003.3 °C91 %2.0 °C2 km/hENE13 km/h3.31011 hPa0.0 mm
04/12/2022 01:403.4 °C91 %2.1 °C2 km/hENE11 km/h3.41011 hPa0.0 mm
04/12/2022 01:303.4 °C91 %2.1 °C2 km/hENE8 km/h3.41011 hPa0.0 mm
04/12/2022 01:103.4 °C91 %2.1 °C2 km/hNE10 km/h3.41011 hPa0.0 mm
04/12/2022 00:403.6 °C92 %2.4 °C2 km/hENE8 km/h3.61012 hPa0.6 mm
04/12/2022 00:303.6 °C92 %2.4 °C2 km/hENE8 km/h3.61012 hPa0.6 mm
04/12/2022 00:103.5 °C92 %2.3 °C2 km/hNE6 km/h3.51012 hPa0.6 mm
04/12/2022 00:003.5 °C92 %2.3 °C2 km/hNE6 km/h3.51012 hPa0.6 mm


Minima :

Température : 3.2 °C
Humidité : 91 %
Point de rosée : 1.9 °C
Vent moyen : 1 km/h
Windchill : 3.2
Pression atm. : 1010 hPa
Maxima :

Température : 4.3 °C
Humidité : 94 %
Point de rosée : 3.3 °C
Vent moyen : 2 km/h
Windchill : 4.3
Pression atm. : 1012 hPa
Rafales max : 13 km/h
Cumul de pluie sur 24H : 1.2 mm

Les Bordes est une commune du département Indre (36).
La station météorologique du réseau de l'association la plus proche de Les Bordes est celle de Issoudun



Icône Facebook Association Météo Centre Icône Twitter Association Météo Centre Icône Chaîne Youtube Association Météo Centre Icône contact Association Météo Centre Icône Insta Association Météo Centre